< < Back
Terminal Aerodrome Forecast


Current Version              Previous Versions:   1  2  3  4  5  6  7  8  9  

Terminal Aerodrome Forecast

628
FTUS44 KMOB 031623 AAB
TAFMOB
TAF AMD
KMOB 031623Z 0316/0412 14009KT 3SM BR BKN006 OVC015
     FM031800 17010KT 5SM BR OVC007
     FM032100 16012KT P6SM OVC007
     FM040300 15006KT 1/4SM FG OVC004=

Latest METAR

266
SAUS80 KWBC 032000 RRG
MTRMOB
METAR KMOB 031956Z 17010KT 7SM BKN017 OVC025 22/18 A3011 RMK AO2 SLP192
T02170178


USA.gov is the U.S. government's official web portal to all federal, state and local government web resources and services.